Simla, Colorado
Current Conditions -  °F | °C
As of 9:55 PM on Friday 24 Oct 2014 (Local Time) from KLIC Reporting Station
Clear Clear  
Wind Chill: 42°   Ceiling: Unl
Heat Index: 44°   Visibility: 10mi
Dew Point: 30°   Wind: 5mph
Humidity: 58%   Direction: 320°NW
Pressure: 30.22"   Gusts: NA
Location:  39.14°N, 104.08°W
Report Text: KLIC 250355Z AUTO 32004KT 10SM CLR 07/M01 A3022 RMK AO2 SLP185 T00671011
Loading
Personal Weather Stations






























Interactive Weather Map
Tropical Storm Tracking
New forecast layout! Learn more

10-Day Weather Forecast

Advertisements
Track Severe Weather on mobile